Time;durP1;ratioP1;P1;durP2;ratioP2;P2;SDS_P1;SDS_P2;PMS_P1;PMS_P2;Temp;Humidity;BMP_temperature;BMP_pressure;BME280_temperature;BME280_humidity;BME280_pressure;Samples;Min_cycle;Max_cycle;Signal;HPM_P1;HPM_P2
2023/05/04 00:00:29;;;;;;;0.10;0.10;;;7.50;99.90;;;;;;6220244;23;20435;-87
2023/05/04 00:02:54;;;;;;;0.00;0.00;;;7.60;99.90;;;;;;6245437;23;20380;-87
2023/05/04 00:05:20;;;;;;;0.10;0.10;;;;;;;;;;6243523;22;20382;-88
2023/05/04 00:07:46;;;;;;;0.10;0.10;;;7.50;99.90;;;;;;6243857;23;20000;-88
2023/05/04 00:10:11;;;;;;;0.10;0.10;;;7.50;99.90;;;;;;6243536;23;20347;-87
2023/05/04 00:12:39;;;;;;;0.00;0.00;;;7.60;99.90;;;;;;6245321;23;20132;-86
2023/05/04 00:15:05;;;;;;;0.10;0.10;;;7.50;99.90;;;;;;6219874;22;20099;-88
2023/05/04 00:17:33;;;;;;;0.00;0.00;;;7.50;99.90;;;;;;6219631;23;20082;-86
2023/05/04 00:19:59;;;;;;;0.00;0.00;;;;;;;;;;6245356;23;20032;-87
2023/05/04 00:22:24;;;;;;;0.10;0.10;;;7.60;99.90;;;;;;6245017;23;20015;-86
2023/05/04 00:24:50;;;;;;;0.10;0.10;;;;;;;;;;6220322;23;20012;-87
2023/05/04 00:27:16;;;;;;;0.10;0.10;;;;;;;;;;6245376;23;19996;-86
2023/05/04 00:29:42;;;;;;;0.10;0.10;;;7.00;99.90;;;;;;6245419;23;20135;-87
2023/05/04 00:32:08;;;;;;;0.10;0.10;;;6.70;99.90;;;;;;6245268;23;20501;-87
2023/05/04 00:34:34;;;;;;;0.10;0.10;;;;;;;;;;6245454;23;20396;-87
2023/05/04 00:37:00;;;;;;;0.10;0.10;;;6.70;99.90;;;;;;6244639;22;20046;-91
2023/05/04 00:39:25;;;;;;;0.10;0.10;;;6.80;99.90;;;;;;6245210;23;20004;-87
2023/05/04 00:41:51;;;;;;;0.10;0.10;;;6.80;99.90;;;;;;6219872;23;20088;-86
2023/05/04 00:44:16;;;;;;;0.10;0.10;;;7.30;99.90;;;;;;6244707;23;20004;-86
2023/05/04 00:46:42;;;;;;;0.10;0.10;;;7.10;99.90;;;;;;6244963;22;20004;-88
2023/05/04 00:49:08;;;;;;;0.10;0.10;;;7.50;99.90;;;;;;6244913;23;20000;-87
2023/05/04 00:51:34;;;;;;;0.10;0.10;;;;;;;;;;6244474;23;20008;-87
2023/05/04 00:54:00;;;;;;;0.00;0.00;;;7.00;99.90;;;;;;6220236;23;20011;-87
2023/05/04 00:56:27;;;;;;;0.10;0.10;;;7.10;99.90;;;;;;6241373;22;20334;-87
2023/05/04 00:58:54;;;;;;;0.00;0.00;;;7.10;99.90;;;;;;6219808;23;20001;-88
2023/05/04 01:01:23;;;;;;;0.00;0.00;;;7.20;99.90;;;;;;6244870;23;20008;-86
2023/05/04 01:03:50;;;;;;;0.00;0.00;;;7.20;99.90;;;;;;6244732;23;20000;-87
2023/05/04 01:06:57;;;;;;;0.10;0.10;;;8.10;99.90;;;;;;6244133;22;20087;-87
2023/05/04 01:09:56;;;;;;;0.10;0.10;;;7.20;99.90;;;;;;6220630;23;20004;-87
2023/05/04 01:12:29;;;;;;;0.10;0.10;;;7.20;99.90;;;;;;6241238;23;20519;-88
2023/05/04 01:14:55;;;;;;;0.10;0.10;;;7.20;99.90;;;;;;6217615;22;20007;-88
2023/05/04 01:17:21;;;;;;;0.00;0.00;;;7.20;99.90;;;;;;6243691;23;20008;-90
2023/05/04 01:19:46;;;;;;;0.10;0.10;;;7.30;99.90;;;;;;6242477;23;20091;-89
2023/05/04 01:22:12;;;;;;;0.10;0.10;;;7.10;99.90;;;;;;6244908;23;20015;-86
2023/05/04 01:24:38;;;;;;;0.10;0.10;;;;;;;;;;6243087;23;20012;-88
2023/05/04 01:27:30;;;;;;;0.00;0.00;;;7.10;99.90;;;;;;6236820;22;20000;-88
2023/05/04 01:30:04;;;;;;;0.10;0.10;;;7.10;99.90;;;;;;6244077;23;20007;-87
2023/05/04 01:32:30;;;;;;;0.00;0.00;;;7.10;99.90;;;;;;6216770;23;20019;-89
2023/05/04 01:34:56;;;;;;;0.10;0.10;;;;;;;;;;6241707;22;20011;-89
2023/05/04 01:37:22;;;;;;;0.10;0.10;;;7.10;99.90;;;;;;6240647;23;20008;-88
2023/05/04 01:39:48;;;;;;;0.00;0.00;;;7.10;99.90;;;;;;6240137;23;20133;-89
2023/05/04 01:42:13;;;;;;;0.10;0.10;;;7.00;99.90;;;;;;6241517;23;20091;-88
2023/05/04 01:44:39;;;;;;;0.10;0.10;;;7.00;99.90;;;;;;6240561;23;20007;-87
2023/05/04 01:47:05;;;;;;;0.10;0.10;;;6.70;99.90;;;;;;6239581;22;20000;-87
2023/05/04 01:49:30;;;;;;;0.10;0.10;;;6.50;99.90;;;;;;6215928;23;20035;-88
2023/05/04 01:51:56;;;;;;;0.03;0.03;;;6.30;99.90;;;;;;6240573;23;20092;-88
2023/05/04 01:54:22;;;;;;;0.10;0.10;;;;;;;;;;6241695;23;20055;-90
2023/05/04 01:56:48;;;;;;;0.10;0.10;;;6.30;99.90;;;;;;6243198;22;20031;-90
2023/05/04 01:59:14;;;;;;;0.10;0.10;;;6.40;99.90;;;;;;6243852;23;20004;-89
2023/05/04 02:01:40;;;;;;;0.00;0.00;;;6.40;99.90;;;;;;6217457;23;20003;-88
2023/05/04 02:04:06;;;;;;;0.10;0.10;;;6.30;99.90;;;;;;6242141;23;20063;-89
2023/05/04 02:06:32;;;;;;;0.10;0.10;;;6.30;99.90;;;;;;6216318;23;20082;-89
2023/05/04 02:08:58;;;;;;;0.10;0.10;;;6.30;99.90;;;;;;6242023;23;20027;-89
2023/05/04 02:11:23;;;;;;;0.00;0.00;;;6.20;99.90;;;;;;6241786;23;20000;-88
2023/05/04 02:13:49;;;;;;;0.03;0.03;;;6.00;99.90;;;;;;6242640;23;20001;-88
2023/05/04 02:16:14;;;;;;;0.10;0.10;;;;;;;;;;6241410;22;20483;-86
2023/05/04 02:18:40;;;;;;;0.10;0.10;;;5.60;99.90;;;;;;6243629;23;20003;-86
2023/05/04 02:21:06;;;;;;;0.10;0.10;;;5.50;99.90;;;;;;6218989;23;20046;-89
2023/05/04 02:23:31;;;;;;;0.10;0.10;;;5.50;99.90;;;;;;6245564;23;20015;-89
2023/05/04 02:25:57;;;;;;;0.10;0.10;;;5.60;99.90;;;;;;6245356;22;20039;-90
2023/05/04 02:28:22;;;;;;;0.10;0.10;;;5.50;99.90;;;;;;6245707;23;20004;-89
2023/05/04 02:30:48;;;;;;;0.10;0.10;;;5.50;99.90;;;;;;6245367;23;20550;-90
2023/05/04 02:33:13;;;;;;;0.10;0.10;;;5.50;99.90;;;;;;6244964;23;20000;-87
2023/05/04 02:35:39;;;;;;;0.00;0.00;;;5.30;99.90;;;;;;6246795;22;20011;-89
2023/05/04 02:38:04;;;;;;;0.10;0.10;;;6.60;99.90;;;;;;6245799;23;20034;-87
2023/05/04 02:40:30;;;;;;;0.00;0.00;;;5.20;99.90;;;;;;6240733;23;20019;-88
2023/05/04 02:42:55;;;;;;;0.10;0.10;;;5.20;99.90;;;;;;6243201;23;20398;-87
2023/05/04 02:45:21;;;;;;;0.00;0.00;;;5.20;99.90;;;;;;6216754;23;20015;-88
2023/05/04 02:47:46;;;;;;;0.00;0.00;;;5.20;99.90;;;;;;6243273;23;20431;-88
2023/05/04 02:50:12;;;;;;;0.10;0.10;;;5.10;99.90;;;;;;6242524;23;20003;-86
2023/05/04 02:52:38;;;;;;;0.10;0.10;;;;;;;;;;6241439;23;20015;-87
2023/05/04 02:55:04;;;;;;;0.10;0.10;;;8.80;99.90;;;;;;6241649;22;20008;-87
2023/05/04 02:57:30;;;;;;;0.10;0.10;;;5.20;99.90;;;;;;6243704;23;20004;-90
2023/05/04 02:59:55;;;;;;;0.10;0.10;;;5.30;99.90;;;;;;6243148;23;20005;-90
2023/05/04 03:02:21;;;;;;;0.10;0.10;;;5.30;99.90;;;;;;6242912;23;20028;-89
2023/05/04 03:04:46;;;;;;;0.10;0.10;;;5.30;99.90;;;;;;6243835;23;20427;-89
2023/05/04 03:07:12;;;;;;;0.10;0.10;;;5.20;99.90;;;;;;6243242;22;20000;-90
2023/05/04 03:09:37;;;;;;;0.10;0.10;;;5.10;99.90;;;;;;6243167;23;20000;-89
2023/05/04 03:12:03;;;;;;;0.10;0.10;;;;;;;;;;6242992;23;20004;-88
2023/05/04 03:14:30;;;;;;;0.10;0.10;;;5.00;99.90;;;;;;6243872;23;20147;-90
2023/05/04 03:16:56;;;;;;;0.10;0.10;;;5.10;99.90;;;;;;6242570;22;20086;-88
2023/05/04 03:19:21;;;;;;;0.08;0.08;;;5.10;99.90;;;;;;6217769;23;20386;-89
2023/05/04 03:21:47;;;;;;;0.03;0.03;;;;;;;;;;6242965;23;20031;-89
2023/05/04 03:24:16;;;;;;;0.00;0.00;;;5.20;99.90;;;;;;6242158;23;20008;-88
2023/05/04 03:26:41;;;;;;;0.10;0.10;;;5.20;99.90;;;;;;6238728;22;20015;-90
2023/05/04 03:29:07;;;;;;;0.10;0.10;;;5.30;99.90;;;;;;6243854;23;20005;-88
2023/05/04 03:31:32;;;;;;;0.10;0.10;;;5.20;99.90;;;;;;6238304;23;20006;-90
2023/05/04 03:33:58;;;;;;;0.10;0.10;;;;;;;;;;6236838;23;20001;-89
2023/05/04 03:36:24;;;;;;;0.10;0.10;;;5.30;99.90;;;;;;6236394;22;20058;-89
2023/05/04 03:38:50;;;;;;;0.10;0.10;;;5.30;99.90;;;;;;6236964;23;20072;-90
2023/05/04 03:41:16;;;;;;;0.10;0.10;;;5.40;99.90;;;;;;6213182;23;20391;-89
2023/05/04 03:43:41;;;;;;;0.10;0.10;;;5.40;99.90;;;;;;6243822;23;20007;-89
2023/05/04 03:46:07;;;;;;;0.10;0.10;;;5.40;99.90;;;;;;6238942;22;20004;-88
2023/05/04 03:48:33;;;;;;;0.10;0.10;;;;;;;;;;6236300;23;20008;-90
2023/05/04 03:50:58;;;;;;;0.10;0.10;;;5.60;99.90;;;;;;6236734;23;20160;-89
2023/05/04 03:53:24;;;;;;;0.10;0.10;;;5.40;99.90;;;;;;6236653;23;20012;-89
2023/05/04 03:55:50;;;;;;;0.10;0.10;;;5.40;99.90;;;;;;6212414;23;20008;-88
2023/05/04 03:58:15;;;;;;;0.10;0.10;;;5.30;99.90;;;;;;6243616;23;20000;-88
2023/05/04 04:00:41;;;;;;;0.00;0.00;;;5.30;99.90;;;;;;6242385;23;20008;-88
2023/05/04 04:03:07;;;;;;;0.10;0.10;;;5.20;99.90;;;;;;6243084;23;20034;-89
2023/05/04 04:05:32;;;;;;;0.10;0.10;;;5.30;99.90;;;;;;6240895;22;20015;-89
2023/05/04 04:07:58;;;;;;;0.10;0.10;;;5.30;99.90;;;;;;6243295;23;20024;-89
2023/05/04 04:10:23;;;;;;;0.10;0.10;;;5.30;99.90;;;;;;6241375;23;20507;-88
2023/05/04 04:12:49;;;;;;;0.10;0.10;;;5.40;99.90;;;;;;6236878;23;20092;-88
2023/05/04 04:15:14;;;;;;;0.00;0.00;;;5.40;99.90;;;;;;6239275;22;20004;-88
2023/05/04 04:17:40;;;;;;;0.10;0.10;;;5.50;99.90;;;;;;6242727;23;20004;-89
2023/05/04 04:20:06;;;;;;;0.10;0.10;;;5.40;99.90;;;;;;6238391;23;20007;-87
2023/05/04 04:22:31;;;;;;;0.00;0.00;;;5.50;99.90;;;;;;6242964;23;20090;-87
2023/05/04 04:24:57;;;;;;;0.10;0.10;;;5.40;99.90;;;;;;6241581;22;20074;-89
2023/05/04 04:27:22;;;;;;;0.10;0.10;;;5.40;99.90;;;;;;6243773;23;20047;-88
2023/05/04 04:29:48;;;;;;;0.10;0.10;;;5.40;99.90;;;;;;6246025;23;20062;-88
2023/05/04 04:32:14;;;;;;;0.00;0.00;;;5.40;99.90;;;;;;6242871;23;20004;-91
2023/05/04 04:34:40;;;;;;;0.00;0.00;;;;;;;;;;6214852;23;20454;-88
2023/05/04 04:37:06;;;;;;;0.10;0.10;;;5.50;99.90;;;;;;6239912;22;20011;-87
2023/05/04 04:39:31;;;;;;;0.10;0.10;;;6.00;99.90;;;;;;6239947;23;20012;-91
2023/05/04 04:41:57;;;;;;;0.08;0.08;;;;;;;;;;6239147;23;20087;-89
2023/05/04 04:44:23;;;;;;;0.00;0.00;;;5.60;99.90;;;;;;6239248;23;20434;-89
2023/05/04 04:46:48;;;;;;;0.10;0.10;;;5.60;99.90;;;;;;6241604;22;20312;-89
2023/05/04 04:49:16;;;;;;;0.00;0.00;;;5.50;99.90;;;;;;6245092;23;20000;-88
2023/05/04 04:51:42;;;;;;;0.10;0.10;;;5.50;99.90;;;;;;6216043;23;20012;-88
2023/05/04 04:54:08;;;;;;;0.00;0.00;;;;;;;;;;6239614;23;20035;-88
2023/05/04 04:56:34;;;;;;;0.10;0.10;;;;;;;;;;6239333;22;20058;-88
2023/05/04 04:58:59;;;;;;;0.10;0.10;;;5.60;99.90;;;;;;6241797;23;20062;-89
2023/05/04 05:01:26;;;;;;;0.10;0.10;;;5.70;99.90;;;;;;6239305;23;20032;-92
2023/05/04 05:03:52;;;;;;;0.10;0.10;;;;;;;;;;6212176;23;20416;-90
2023/05/04 05:06:18;;;;;;;0.00;0.00;;;;;;;;;;6233164;22;20015;-90
2023/05/04 05:08:44;;;;;;;0.05;0.05;;;;;;;;;;6236591;23;20032;-91
2023/05/04 05:11:11;;;;;;;0.10;0.10;;;;;;;;;;6235905;23;20004;-90
2023/05/04 05:13:37;;;;;;;0.00;0.00;;;;;;;;;;6236067;23;20088;-90
2023/05/04 05:16:03;;;;;;;0.10;0.10;;;6.40;99.90;;;;;;6236042;22;20023;-90
2023/05/04 05:18:28;;;;;;;0.00;0.00;;;6.50;99.90;;;;;;6235975;23;20086;-90
2023/05/04 05:20:55;;;;;;;0.10;0.10;;;6.70;99.90;;;;;;6238725;23;20083;-90
2023/05/04 05:23:20;;;;;;;0.10;0.10;;;6.70;99.90;;;;;;6215136;23;20004;-90
2023/05/04 05:25:46;;;;;;;0.10;0.10;;;6.80;99.90;;;;;;6240106;22;20077;-89
2023/05/04 05:28:15;;;;;;;0.10;0.10;;;6.90;99.90;;;;;;6240272;23;20084;-89
2023/05/04 05:30:40;;;;;;;0.10;0.10;;;7.00;99.90;;;;;;6241617;23;20017;-89
2023/05/04 05:33:05;;;;;;;0.10;0.10;;;7.10;99.90;;;;;;6242504;23;20217;-89
2023/05/04 05:35:31;;;;;;;0.10;0.10;;;7.30;99.90;;;;;;6241688;22;20435;-89
2023/05/04 05:37:57;;;;;;;0.10;0.10;;;7.40;99.90;;;;;;6242382;23;20004;-89
2023/05/04 05:40:23;;;;;;;0.10;0.10;;;7.70;99.90;;;;;;6215614;23;20347;-89
2023/05/04 05:42:49;;;;;;;0.10;0.10;;;;;;;;;;6237301;23;20004;-89
2023/05/04 05:45:14;;;;;;;0.10;0.10;;;7.90;99.90;;;;;;6236744;22;20008;-89
2023/05/04 05:47:40;;;;;;;0.03;0.03;;;7.90;99.90;;;;;;6237050;23;20435;-90
2023/05/04 05:50:06;;;;;;;0.10;0.10;;;8.00;99.90;;;;;;6237608;23;20091;-89
2023/05/04 05:52:32;;;;;;;0.10;0.10;;;7.70;99.90;;;;;;6216568;23;20012;-89
2023/05/04 05:54:57;;;;;;;0.10;0.10;;;8.00;99.90;;;;;;6240514;22;20004;-90
2023/05/04 05:57:23;;;;;;;0.10;0.10;;;8.00;99.90;;;;;;6240215;23;20081;-90
2023/05/04 05:59:49;;;;;;;0.00;0.00;;;8.10;99.90;;;;;;6243074;23;20028;-90
2023/05/04 06:02:14;;;;;;;0.10;0.10;;;8.10;99.90;;;;;;6241339;23;19992;-90
2023/05/04 06:04:41;;;;;;;0.00;0.00;;;8.30;99.90;;;;;;6239745;23;20035;-89
2023/05/04 06:07:07;;;;;;;0.10;0.10;;;8.30;99.90;;;;;;6242653;22;20343;-89
2023/05/04 06:09:33;;;;;;;0.10;0.10;;;9.00;99.90;;;;;;6238941;23;20035;-89
2023/05/04 06:11:58;;;;;;;0.00;0.00;;;8.50;99.90;;;;;;6242417;23;20435;-89
2023/05/04 06:14:24;;;;;;;0.00;0.00;;;;;;;;;;6241542;23;20011;-89
2023/05/04 06:16:50;;;;;;;0.10;0.10;;;;;;;;;;6242222;22;20008;-89
2023/05/04 06:19:16;;;;;;;0.10;0.10;;;;;;;;;;6241820;23;20008;-89
2023/05/04 06:21:42;;;;;;;0.10;0.10;;;8.70;99.90;;;;;;6242329;23;20036;-89
2023/05/04 06:24:08;;;;;;;0.10;0.10;;;8.70;99.90;;;;;;6241006;23;20474;-89
2023/05/04 06:26:33;;;;;;;0.10;0.10;;;8.80;99.90;;;;;;6242065;22;20005;-89
2023/05/04 06:28:59;;;;;;;0.10;0.10;;;8.90;99.90;;;;;;6242287;23;20000;-89
2023/05/04 06:31:25;;;;;;;0.10;0.10;;;9.20;99.90;;;;;;6242224;23;20008;-89
2023/05/04 06:33:50;;;;;;;0.10;0.10;;;9.20;99.90;;;;;;6232331;23;20054;-89
2023/05/04 06:36:16;;;;;;;0.10;0.10;;;9.20;99.90;;;;;;6242378;22;20055;-89
2023/05/04 06:38:42;;;;;;;0.10;0.10;;;;;;;;;;6243381;23;20007;-89
2023/05/04 06:41:07;;;;;;;0.10;0.10;;;9.50;99.90;;;;;;6242360;23;20043;-89
2023/05/04 06:43:33;;;;;;;0.00;0.00;;;9.70;99.90;;;;;;6242931;23;20050;-89
2023/05/04 06:46:02;;;;;;;0.10;0.10;;;9.80;99.90;;;;;;6242662;22;20005;-89
2023/05/04 06:48:29;;;;;;;0.00;0.00;;;10.00;99.90;;;;;;6242931;23;20028;-89
2023/05/04 06:50:55;;;;;;;0.00;0.00;;;10.10;99.90;;;;;;6242648;23;20075;-90
2023/05/04 06:53:21;;;;;;;0.00;0.00;;;10.30;99.90;;;;;;6217770;23;20008;-89
2023/05/04 06:55:47;;;;;;;0.10;0.10;;;;;;;;;;6243004;22;20011;-90
2023/05/04 06:58:12;;;;;;;0.00;0.00;;;10.50;99.90;;;;;;6242987;23;20030;-89
2023/05/04 07:00:38;;;;;;;0.10;0.10;;;10.70;99.90;;;;;;6243079;23;20008;-89
2023/05/04 07:03:03;;;;;;;0.10;0.10;;;10.70;99.90;;;;;;6241868;23;20035;-89
2023/05/04 07:05:29;;;;;;;0.00;0.00;;;10.90;99.90;;;;;;6242732;22;20008;-90
2023/05/04 07:07:55;;;;;;;0.05;0.05;;;11.30;99.90;;;;;;6242882;23;20086;-89
2023/05/04 07:10:21;;;;;;;0.05;0.05;;;11.40;99.90;;;;;;6219497;23;20083;-89
2023/05/04 07:12:46;;;;;;;0.00;0.00;;;11.40;99.90;;;;;;6245335;23;20008;-89
2023/05/04 07:15:12;;;;;;;0.00;0.00;;;11.50;99.90;;;;;;6244939;22;20316;-89
2023/05/04 07:17:38;;;;;;;0.00;0.00;;;11.60;99.90;;;;;;6219723;23;20126;-89
2023/05/04 07:20:04;;;;;;;0.00;0.00;;;11.70;99.90;;;;;;6219773;23;20466;-90
2023/05/04 07:22:31;;;;;;;0.00;0.00;;;11.70;99.90;;;;;;6244633;23;20062;-90
2023/05/04 07:24:57;;;;;;;0.00;0.00;;;;;;;;;;6218819;22;20044;-90
2023/05/04 07:27:23;;;;;;;0.00;0.00;;;11.70;99.90;;;;;;6244690;23;20000;-89
2023/05/04 07:29:49;;;;;;;0.00;0.00;;;11.80;99.90;;;;;;6244007;23;20010;-88
2023/05/04 07:32:15;;;;;;;0.00;0.00;;;11.90;99.90;;;;;;6216060;23;20374;-89
2023/05/04 07:34:41;;;;;;;0.00;0.00;;;12.10;99.90;;;;;;6243811;23;20028;-88
2023/05/04 07:37:06;;;;;;;0.00;0.00;;;12.10;99.90;;;;;;6243843;22;19996;-88
2023/05/04 07:39:34;;;;;;;0.00;0.00;;;12.20;99.90;;;;;;6218453;23;20000;-89
2023/05/04 07:42:02;;;;;;;0.00;0.00;;;12.10;99.90;;;;;;6217582;23;20399;-89
2023/05/04 07:44:28;;;;;;;0.00;0.00;;;;;;;;;;6218848;23;20325;-88
2023/05/04 07:46:53;;;;;;;0.00;0.00;;;12.50;99.90;;;;;;6244135;22;20015;-88
2023/05/04 07:49:19;;;;;;;0.00;0.00;;;12.50;99.90;;;;;;6242537;23;20000;-88
2023/05/04 07:51:44;;;;;;;0.00;0.00;;;12.60;99.90;;;;;;6243361;23;19992;-89
2023/05/04 07:54:10;;;;;;;0.00;0.00;;;12.60;99.90;;;;;;6243904;23;20008;-88
2023/05/04 07:56:35;;;;;;;0.00;0.00;;;12.80;99.90;;;;;;6242776;22;20062;-88
2023/05/04 07:59:01;;;;;;;0.00;0.00;;;12.80;99.90;;;;;;6244157;23;20004;-90
2023/05/04 08:01:26;;;;;;;0.00;0.00;;;13.00;99.90;;;;;;6243828;23;20119;-88
2023/05/04 08:03:52;;;;;;;0.00;0.00;;;13.00;99.90;;;;;;6242479;23;19992;-88
2023/05/04 08:06:17;;;;;;;0.00;0.00;;;13.20;99.90;;;;;;6242792;22;20000;-88
2023/05/04 08:08:43;;;;;;;0.00;0.00;;;13.40;99.90;;;;;;6242917;23;20000;-88
2023/05/04 08:11:13;;;;;;;0.00;0.00;;;13.40;99.60;;;;;;6217628;23;20008;-88
2023/05/04 08:13:39;;;;;;;0.00;0.00;;;13.70;99.60;;;;;;6244171;23;20343;-88
2023/05/04 08:16:05;;;;;;;0.00;0.00;;;13.80;99.50;;;;;;6242978;22;20004;-89
2023/05/04 08:18:31;;;;;;;0.00;0.00;;;13.90;99.70;;;;;;6243345;23;20004;-88
2023/05/04 08:20:57;;;;;;;0.00;0.00;;;;;;;;;;6245892;23;20019;-88
2023/05/04 08:23:23;;;;;;;0.00;0.00;;;;;;;;;;6243538;23;20011;-90
2023/05/04 08:25:48;;;;;;;0.00;0.00;;;14.20;98.40;;;;;;6243641;22;20004;-89
2023/05/04 08:28:14;;;;;;;0.00;0.00;;;14.30;97.30;;;;;;6243708;23;20367;-89
2023/05/04 08:30:39;;;;;;;0.00;0.00;;;14.20;96.70;;;;;;6243693;23;20451;-89
2023/05/04 08:33:06;;;;;;;0.00;0.00;;;14.30;97.70;;;;;;6243431;23;19996;-89
2023/05/04 08:35:31;;;;;;;0.00;0.00;;;14.40;98.20;;;;;;6217689;23;20008;-91
2023/05/04 08:37:57;;;;;;;0.00;0.00;;;14.50;97.60;;;;;;6243771;23;20560;-89
2023/05/04 08:40:23;;;;;;;0.00;0.00;;;14.50;97.00;;;;;;6243159;23;20023;-89
2023/05/04 08:42:50;;;;;;;0.00;0.00;;;14.70;96.70;;;;;;6218861;23;20008;-88
2023/05/04 08:45:16;;;;;;;0.00;0.00;;;15.10;96.50;;;;;;6244361;22;20081;-89
2023/05/04 08:47:42;;;;;;;0.00;0.00;;;15.00;96.70;;;;;;6244070;23;20007;-89
2023/05/04 08:50:09;;;;;;;0.00;0.00;;;15.20;96.70;;;;;;6243434;23;20493;-90
2023/05/04 08:52:35;;;;;;;0.00;0.00;;;15.20;95.90;;;;;;6243894;23;20008;-89
2023/05/04 08:55:01;;;;;;;0.00;0.00;;;15.40;95.30;;;;;;6243227;22;20012;-89
2023/05/04 08:57:27;;;;;;;0.00;0.00;;;15.40;95.60;;;;;;6218621;23;20008;-90
2023/05/04 08:59:54;;;;;;;0.05;0.05;;;15.50;95.20;;;;;;6218278;23;20678;-89
2023/05/04 09:02:21;;;;;;;0.00;0.00;;;15.60;94.90;;;;;;6243904;23;20034;-88
2023/05/04 09:04:48;;;;;;;0.00;0.00;;;15.60;95.00;;;;;;6217570;23;20008;-89
2023/05/04 09:07:13;;;;;;;0.00;0.00;;;15.80;94.30;;;;;;6243439;22;20004;-88
2023/05/04 09:09:40;;;;;;;0.00;0.00;;;15.60;94.40;;;;;;6217930;23;20007;-89
2023/05/04 09:12:05;;;;;;;0.00;0.00;;;15.80;95.30;;;;;;6217218;23;20100;-88
2023/05/04 09:14:33;;;;;;;0.00;0.00;;;16.10;95.40;;;;;;6243083;23;20432;-90
2023/05/04 09:17:00;;;;;;;0.00;0.00;;;16.10;94.60;;;;;;6217447;23;20042;-89
2023/05/04 09:19:32;;;;;;;0.00;0.00;;;;;;;;;;6217802;23;20008;-89
2023/05/04 09:22:01;;;;;;;0.00;0.00;;;16.40;92.50;;;;;;6241436;23;20000;-89
2023/05/04 09:24:29;;;;;;;0.00;0.00;;;16.40;93.00;;;;;;6242118;23;20014;-89
2023/05/04 09:27:10;;;;;;;0.00;0.00;;;16.50;92.50;;;;;;6242121;22;20022;-89
2023/05/04 09:29:39;;;;;;;0.00;0.00;;;16.60;92.50;;;;;;6241005;23;20012;-88
2023/05/04 09:32:08;;;;;;;0.00;0.00;;;16.70;93.00;;;;;;6243727;23;20133;-89
2023/05/04 09:34:36;;;;;;;0.00;0.00;;;16.60;93.40;;;;;;6243103;23;20498;-89
2023/05/04 09:37:02;;;;;;;0.00;0.00;;;16.70;93.70;;;;;;6242857;22;20135;-88
2023/05/04 09:39:29;;;;;;;0.00;0.00;;;17.00;92.60;;;;;;6243154;23;20007;-88
2023/05/04 09:41:55;;;;;;;0.00;0.00;;;17.10;92.20;;;;;;6242426;23;20098;-87
2023/05/04 09:44:22;;;;;;;0.00;0.00;;;17.10;91.00;;;;;;6216336;23;20015;-88
2023/05/04 09:46:55;;;;;;;0.00;0.00;;;17.20;91.70;;;;;;6235351;22;20019;-88
2023/05/04 09:49:35;;;;;;;0.00;0.00;;;17.30;90.90;;;;;;6241285;23;20005;-90
2023/05/04 09:52:03;;;;;;;0.00;0.00;;;17.20;90.60;;;;;;6216981;23;20004;-89
2023/05/04 09:54:33;;;;;;;0.00;0.00;;;17.40;91.40;;;;;;6242745;23;20004;-88
2023/05/04 09:57:14;;;;;;;;;;;17.50;91.00;;;;;;6242084;22;20004;-88
2023/05/04 09:59:41;;;;;;;0.00;0.00;;;17.60;90.80;;;;;;6217159;23;19899;-89
2023/05/04 10:02:08;;;;;;;0.00;0.00;;;17.80;91.80;;;;;;6242396;23;20336;-89
2023/05/04 10:04:34;;;;;;;0.00;0.00;;;17.90;89.90;;;;;;6242336;23;20004;-89
2023/05/04 10:07:03;;;;;;;0.00;0.00;;;17.80;90.80;;;;;;6242516;22;20004;-88
2023/05/04 10:09:30;;;;;;;0.00;0.00;;;17.80;91.00;;;;;;6217170;23;20004;-88
2023/05/04 10:12:00;;;;;;;0.00;0.00;;;17.80;89.60;;;;;;6242203;23;20014;-89
2023/05/04 10:14:30;;;;;;;0.00;0.00;;;17.80;88.80;;;;;;6243053;23;20008;-89
2023/05/04 10:17:36;;;;;;;0.00;0.00;;;18.00;89.70;;;;;;6217265;23;20458;-89
2023/05/04 10:20:29;;;;;;;0.00;0.00;;;18.20;90.80;;;;;;6243152;23;20004;-88
2023/05/04 10:23:23;;;;;;;0.00;0.00;;;18.40;87.30;;;;;;6267069;22;20083;-89
2023/05/04 10:26:04;;;;;;;0.00;0.00;;;18.20;89.60;;;;;;6242480;22;20342;-89
2023/05/04 10:28:39;;;;;;;0.00;0.00;;;18.30;89.60;;;;;;6216760;23;20347;-90
2023/05/04 10:31:06;;;;;;;0.00;0.00;;;18.40;86.20;;;;;;6217389;23;20501;-89
2023/05/04 10:33:42;;;;;;;0.00;0.00;;;18.40;88.20;;;;;;6218060;23;20011;-89
2023/05/04 10:36:09;;;;;;;0.00;0.00;;;18.40;89.40;;;;;;6243210;22;20038;-89
2023/05/04 10:38:35;;;;;;;0.00;0.00;;;18.40;90.00;;;;;;6242829;23;20011;-89
2023/05/04 10:41:16;;;;;;;0.00;0.00;;;18.50;90.20;;;;;;6241766;23;20008;-89
2023/05/04 10:43:47;;;;;;;0.00;0.00;;;18.50;88.80;;;;;;6216931;23;20016;-89
2023/05/04 10:46:22;;;;;;;0.00;0.00;;;18.50;85.20;;;;;;6244799;22;20007;-88
2023/05/04 10:48:49;;;;;;;0.00;0.00;;;18.60;90.50;;;;;;6244317;23;20075;-89
2023/05/04 10:51:21;;;;;;;0.00;0.00;;;18.60;88.50;;;;;;6242809;23;20024;-89
2023/05/04 10:53:47;;;;;;;0.00;0.00;;;18.70;89.00;;;;;;6244612;23;20439;-89
2023/05/04 10:56:22;;;;;;;0.00;0.00;;;18.80;90.10;;;;;;6217127;23;20031;-89
2023/05/04 10:58:48;;;;;;;0.00;0.00;;;18.80;89.80;;;;;;6269537;22;20499;-89
2023/05/04 11:01:14;;;;;;;0.00;0.00;;;18.90;89.30;;;;;;6240151;23;20011;-89
2023/05/04 11:03:40;;;;;;;0.00;0.00;;;19.00;89.90;;;;;;6218372;23;20004;-90
2023/05/04 11:06:23;;;;;;;0.00;0.00;;;18.90;88.60;;;;;;6243930;22;20086;-87
2023/05/04 11:09:04;;;;;;;0.00;0.00;;;18.90;87.10;;;;;;6244572;23;20444;-88
2023/05/04 11:11:35;;;;;;;0.00;0.00;;;18.90;86.70;;;;;;6243651;23;20015;-89
2023/05/04 11:14:01;;;;;;;0.00;0.00;;;20.50;88.70;;;;;;6217514;23;20458;-89
2023/05/04 11:16:27;;;;;;;0.00;0.00;;;18.60;88.30;;;;;;6244346;22;20091;-89
2023/05/04 11:18:53;;;;;;;0.00;0.00;;;18.40;89.30;;;;;;6243590;23;20027;-89
2023/05/04 11:21:26;;;;;;;0.00;0.00;;;18.30;89.70;;;;;;6217522;23;20078;-89
2023/05/04 11:23:56;;;;;;;0.00;0.00;;;18.50;86.90;;;;;;6242078;23;20011;-89
2023/05/04 11:26:34;;;;;;;0.00;0.00;;;18.50;87.00;;;;;;6242946;22;20007;-89
2023/05/04 11:29:00;;;;;;;0.00;0.00;;;;;;;;;;6243139;23;20042;-91
2023/05/04 11:31:26;;;;;;;0.00;0.00;;;;;;;;;;6244595;23;20400;-89
2023/05/04 11:33:53;;;;;;;0.00;0.00;;;18.60;87.00;;;;;;6242432;23;20000;-88
2023/05/04 11:36:20;;;;;;;0.00;0.00;;;18.60;87.60;;;;;;6245241;22;20036;-89
2023/05/04 11:38:47;;;;;;;0.00;0.00;;;18.80;88.40;;;;;;6220022;23;20007;-89
2023/05/04 11:41:12;;;;;;;0.00;0.00;;;18.60;88.20;;;;;;6218775;23;20099;-90
2023/05/04 11:43:41;;;;;;;0.00;0.00;;;18.60;89.00;;;;;;6243675;23;20046;-89
2023/05/04 11:46:06;;;;;;;0.00;0.00;;;18.60;89.60;;;;;;6217447;23;20016;-88
2023/05/04 11:48:34;;;;;;;0.00;0.00;;;19.00;86.60;;;;;;6244824;23;20062;-88
2023/05/04 11:51:00;;;;;;;0.00;0.00;;;21.30;88.50;;;;;;6214299;23;20432;-88
2023/05/04 11:53:27;;;;;;;0.00;0.00;;;19.10;85.30;;;;;;6245297;23;20012;-88
2023/05/04 11:55:53;;;;;;;0.00;0.00;;;21.20;87.00;;;;;;6218062;23;20030;-89
2023/05/04 11:58:26;;;;;;;0.00;0.00;;;19.20;86.90;;;;;;6214620;23;20447;-89
2023/05/04 12:00:56;;;;;;;0.00;0.00;;;19.60;86.60;;;;;;6236930;23;20058;-89
2023/05/04 12:03:33;;;;;;;0.00;0.00;;;19.60;86.40;;;;;;6217670;23;20058;-89
2023/05/04 12:05:59;;;;;;;0.00;0.00;;;19.60;86.60;;;;;;6239553;23;20012;-90
2023/05/04 12:08:28;;;;;;;0.00;0.00;;;19.90;85.00;;;;;;6243769;23;20059;-89
2023/05/04 12:11:16;;;;;;;0.00;0.00;;;20.10;84.70;;;;;;6243008;23;20010;-91
2023/05/04 12:13:46;;;;;;;0.00;0.00;;;20.20;84.40;;;;;;6262237;22;20001;-90
2023/05/04 12:16:19;;;;;;;0.00;0.00;;;20.20;84.40;;;;;;6218694;23;20015;-87
2023/05/04 12:18:45;;;;;;;0.00;0.00;;;20.30;83.10;;;;;;6244667;23;20005;-89
2023/05/04 12:21:13;;;;;;;0.00;0.00;;;20.50;85.10;;;;;;6239713;23;20018;-89
2023/05/04 12:23:40;;;;;;;0.00;0.00;;;20.60;84.50;;;;;;6244197;23;20015;-89
2023/05/04 12:26:06;;;;;;;0.00;0.00;;;21.50;85.40;;;;;;6238757;22;20067;-87
2023/05/04 12:28:34;;;;;;;0.00;0.00;;;20.90;83.70;;;;;;6244404;23;20000;-88
2023/05/04 12:30:59;;;;;;;0.00;0.00;;;21.00;82.50;;;;;;6243955;23;20079;-89
2023/05/04 12:33:25;;;;;;;0.00;0.00;;;21.00;80.50;;;;;;6245638;23;20365;-88
2023/05/04 12:35:51;;;;;;;0.00;0.00;;;21.00;82.20;;;;;;6244876;22;20004;-87
2023/05/04 12:38:17;;;;;;;0.00;0.00;;;20.90;82.80;;;;;;6219318;23;20008;-89
2023/05/04 12:40:43;;;;;;;0.00;0.00;;;21.00;81.20;;;;;;6219052;23;20438;-89
2023/05/04 12:43:09;;;;;;;0.00;0.00;;;20.90;79.80;;;;;;6245003;23;20004;-88
2023/05/04 12:45:35;;;;;;;0.00;0.00;;;20.70;80.30;;;;;;6220184;23;20009;-89
2023/05/04 12:48:00;;;;;;;0.00;0.00;;;20.70;81.60;;;;;;6244079;23;20087;-89
2023/05/04 12:50:26;;;;;;;0.00;0.00;;;20.70;82.30;;;;;;6244465;23;20454;-89
2023/05/04 12:52:51;;;;;;;0.00;0.00;;;20.90;82.70;;;;;;6242134;23;20009;-89
2023/05/04 12:55:17;;;;;;;0.00;0.00;;;21.00;81.00;;;;;;6243431;22;20007;-89
2023/05/04 12:57:43;;;;;;;0.00;0.00;;;21.20;81.00;;;;;;6219590;23;20031;-88
2023/05/04 13:00:10;;;;;;;0.00;0.00;;;21.40;78.80;;;;;;6243134;23;20004;-89
2023/05/04 13:02:36;;;;;;;0.00;0.00;;;21.30;78.20;;;;;;6217396;23;20012;-90